Time;durP1;ratioP1;P1;durP2;ratioP2;P2;SDS_P1;SDS_P2;PMS_P1;PMS_P2;Temp;Humidity;BMP_temperature;BMP_pressure;BME280_temperature;BME280_humidity;BME280_pressure;Samples;Min_cycle;Max_cycle;Signal;HPM_P1;HPM_P2
2021/01/04 00:00:13;;;;;;;0.53;0.53;;;4.70;99.90;;;;;;4843406;29;20223;-88
2021/01/04 00:03:02;;;;;;;0.60;0.60;;;4.70;99.90;;;;;;4859113;29;20683;-90
2021/01/04 00:05:51;;;;;;;2.17;0.57;;;4.70;99.90;;;;;;4845395;29;20551;-91
2021/01/04 00:08:55;;;;;;;0.30;0.30;;;4.60;99.90;;;;;;4845177;29;20229;-89
2021/01/04 00:11:38;;;;;;;0.50;0.50;;;4.70;99.90;;;;;;4844321;29;20659;-91
2021/01/04 00:14:33;;;;;;;0.73;0.63;;;4.60;99.90;;;;;;4842468;29;20221;-89
2021/01/04 00:17:19;;;;;;;0.43;0.43;;;4.70;99.90;;;;;;4844229;29;21278;-90
2021/01/04 00:20:10;;;;;;;0.90;0.60;;;4.60;99.90;;;;;;4859879;29;20216;-91
2021/01/04 00:23:02;;;;;;;0.60;0.60;;;4.60;99.90;;;;;;4844028;29;20243;-91
2021/01/04 00:25:30;;;;;;;2.60;0.60;;;4.40;99.90;;;;;;4844048;29;20231;-92
2021/01/04 00:28:05;;;;;;;2.90;1.23;;;4.50;99.90;;;;;;4844587;29;20225;-90
2021/01/04 00:30:40;;;;;;;0.70;0.70;;;4.50;99.90;;;;;;4841029;29;20753;-91
2021/01/04 00:33:15;;;;;;;9.37;0.80;;;4.50;99.90;;;;;;4859656;29;20223;-90
2021/01/04 00:35:45;;;;;;;1.17;1.07;;;4.50;99.90;;;;;;4858706;29;20196;-90
2021/01/04 00:38:30;;;;;;;2.07;0.63;;;4.50;99.90;;;;;;4831408;29;20205;-91
2021/01/04 00:41:13;;;;;;;1.03;0.70;;;4.50;99.90;;;;;;4840923;29;20255;-92
2021/01/04 00:43:46;;;;;;;5.10;0.83;;;4.50;99.90;;;;;;4858851;29;20823;-90
2021/01/04 00:46:15;;;;;;;1.27;0.60;;;4.50;99.90;;;;;;4860020;29;20247;-90
2021/01/04 00:49:01;;;;;;;1.20;1.10;;;4.50;99.90;;;;;;4860006;29;20247;-91
2021/01/04 00:51:47;;;;;;;5.83;0.80;;;4.50;99.90;;;;;;4844271;29;20352;-89
2021/01/04 00:54:38;;;;;;;0.53;0.50;;;4.50;99.90;;;;;;4841790;29;20223;-89
2021/01/04 00:57:49;;;;;;;0.40;0.40;;;4.40;99.90;;;;;;4859469;29;20302;-89
2021/01/04 01:00:22;;;;;;;3.30;1.13;;;4.40;99.90;;;;;;4857768;29;20274;-91
2021/01/04 01:03:18;;;;;;;0.33;0.33;;;4.30;99.90;;;;;;4843780;29;20256;-91
2021/01/04 01:06:07;;;;;;;0.23;0.23;;;4.40;99.90;;;;;;4857715;29;20790;-88
2021/01/04 01:08:36;;;;;;;0.73;0.73;;;4.30;99.90;;;;;;4809115;29;20286;-90
2021/01/04 01:11:07;;;;;;;1.17;1.07;;;4.30;99.90;;;;;;4859569;29;20196;-90
2021/01/04 01:13:44;;;;;;;0.37;0.37;;;4.40;99.90;;;;;;4842157;29;20220;-90
2021/01/04 01:16:42;;;;;;;2.57;0.70;;;4.40;99.90;;;;;;4841514;29;20233;-89
2021/01/04 01:19:25;;;;;;;0.40;0.40;;;4.40;99.90;;;;;;4832105;29;20995;-90
2021/01/04 01:21:50;;;;;;;7.87;0.60;;;4.50;99.90;;;;;;4855331;29;20283;-90
2021/01/04 01:24:17;;;;;;;3.23;1.23;;;4.50;99.90;;;;;;4840143;29;20232;-89
2021/01/04 01:27:14;;;;;;;0.77;0.73;;;4.40;99.90;;;;;;4824840;29;20200;-91
2021/01/04 01:30:08;;;;;;;0.90;0.90;;;4.30;99.90;;;;;;4828162;29;20673;-90
2021/01/04 01:32:40;;;;;;;0.87;0.87;;;4.30;99.90;;;;;;4843561;29;20200;-91
2021/01/04 01:35:31;;;;;;;0.97;0.97;;;4.30;99.90;;;;;;4841804;29;20239;-91
2021/01/04 01:38:37;;;;;;;0.30;0.30;;;4.30;99.90;;;;;;4859282;29;20244;-92
2021/01/04 01:41:26;;;;;;;0.83;0.67;;;4.20;99.90;;;;;;4843808;29;20292;-91
2021/01/04 01:44:19;;;;;;;2.07;1.33;;;4.20;99.90;;;;;;4841070;29;20233;-91
2021/01/04 01:47:08;;;;;;;0.23;0.23;;;4.30;99.90;;;;;;4843974;29;20235;-92
2021/01/04 01:49:57;;;;;;;0.83;0.83;;;4.30;99.90;;;;;;4844599;29;20608;-93
2021/01/04 01:52:41;;;;;;;1.50;1.17;;;4.30;99.90;;;;;;4842184;29;20240;-92
2021/01/04 01:55:35;;;;;;;1.80;0.87;;;4.30;99.90;;;;;;4842759;29;21030;-94
2021/01/04 01:58:25;;;;;;;1.23;1.13;;;4.40;99.90;;;;;;4858764;29;20702;-89
2021/01/04 02:01:13;;;;;;;2.83;1.73;;;4.40;99.90;;;;;;4841689;29;20263;-90
2021/01/04 02:04:02;;;;;;;0.20;0.20;;;4.30;99.90;;;;;;4844641;29;20721;-90
2021/01/04 02:06:40;;;;;;;1.43;1.33;;;4.30;99.90;;;;;;4857386;29;20224;-91
2021/01/04 02:09:15;;;;;;;0.20;0.20;;;4.30;99.90;;;;;;4840659;29;20249;-91
2021/01/04 02:11:54;;;;;;;1.33;1.23;;;4.20;99.90;;;;;;4859905;29;20251;-90
2021/01/04 02:14:50;;;;;;;0.20;0.20;;;4.20;99.90;;;;;;4859022;29;20830;-93
2021/01/04 02:17:24;;;;;;;0.77;0.77;;;4.20;99.90;;;;;;4843038;29;20237;-91
2021/01/04 02:19:56;;;;;;;0.97;0.57;;;4.20;99.90;;;;;;4853430;29;20219;-90
2021/01/04 02:22:51;;;;;;;0.57;0.57;;;4.20;99.90;;;;;;4838440;29;20239;-90
2021/01/04 02:25:16;;;;;;;2.83;0.90;;;4.20;99.90;;;;;;4857660;29;20231;-90
2021/01/04 02:27:48;;;;;;;0.73;0.73;;;4.20;99.90;;;;;;4827643;29;21325;-90
2021/01/04 02:30:14;;;;;;;1.00;0.93;;;4.30;99.90;;;;;;4842926;29;20299;-92
2021/01/04 02:32:40;;;;;;;17.93;0.93;;;4.30;99.90;;;;;;4828765;29;20287;-92
2021/01/04 02:35:07;;;;;;;0.20;0.20;;;4.30;99.90;;;;;;4828427;29;20256;-90
2021/01/04 02:37:33;;;;;;;0.40;0.40;;;4.30;99.90;;;;;;4828474;29;20323;-94
2021/01/04 02:40:12;;;;;;;0.57;0.57;;;4.40;99.90;;;;;;4842539;29;20213;-90
2021/01/04 02:42:44;;;;;;;0.60;0.60;;;4.40;99.90;;;;;;4840258;29;20243;-92
2021/01/04 02:45:10;;;;;;;0.37;0.37;;;4.40;99.90;;;;;;4842051;29;20242;-91
2021/01/04 02:48:10;;;;;;;0.40;0.40;;;4.40;99.90;;;;;;4847044;29;20310;-91
2021/01/04 02:51:13;;;;;;;5.00;2.37;;;4.40;99.90;;;;;;4839419;29;20235;-89
2021/01/04 02:53:57;;;;;;;0.63;0.60;;;4.40;99.90;;;;;;4844722;29;20209;-90
2021/01/04 02:56:41;;;;;;;1.13;0.43;;;4.40;99.90;;;;;;4842504;29;20188;-92
2021/01/04 02:59:15;;;;;;;0.37;0.37;;;4.40;99.90;;;;;;4840766;29;20223;-90
2021/01/04 03:02:18;;;;;;;0.60;0.60;;;4.40;99.90;;;;;;4837683;29;20565;-89
2021/01/04 03:04:46;;;;;;;0.20;0.20;;;4.40;99.90;;;;;;4839290;29;20232;-91
2021/01/04 03:07:19;;;;;;;0.50;0.50;;;4.50;99.90;;;;;;4840505;29;20229;-89
2021/01/04 03:09:51;;;;;;;0.93;0.30;;;4.50;99.90;;;;;;4837109;29;20275;-92
2021/01/04 03:12:28;;;;;;;0.93;0.43;;;4.50;99.90;;;;;;4854252;29;20232;-89
2021/01/04 03:15:07;;;;;;;1.43;0.33;;;4.50;99.90;;;;;;4835217;29;20572;-92
2021/01/04 03:17:54;;;;;;;0.43;0.43;;;4.50;99.90;;;;;;4837967;29;20266;-91
2021/01/04 03:20:22;;;;;;;0.77;0.77;;;4.50;99.90;;;;;;4856104;29;20220;-90
2021/01/04 03:22:50;;;;;;;0.40;0.40;;;4.50;99.90;;;;;;4841249;29;20236;-90
2021/01/04 03:25:29;;;;;;;1.50;0.70;;;4.40;99.90;;;;;;4841763;29;20228;-91
2021/01/04 03:27:55;;;;;;;0.97;0.93;;;4.40;99.90;;;;;;4839669;29;20378;-90
2021/01/04 03:30:21;;;;;;;0.83;0.57;;;4.40;99.90;;;;;;4841202;29;20220;-89
2021/01/04 03:32:47;;;;;;;0.40;0.40;;;4.40;99.90;;;;;;4842890;29;20221;-91
2021/01/04 03:35:13;;;;;;;2.27;0.97;;;4.40;99.90;;;;;;4847520;29;21345;-91
2021/01/04 03:37:39;;;;;;;0.67;0.67;;;4.40;99.90;;;;;;4843216;29;20311;-90
2021/01/04 03:40:06;;;;;;;6.13;1.57;;;4.40;99.90;;;;;;4829736;29;20231;-89
2021/01/04 03:42:33;;;;;;;1.53;0.90;;;4.50;99.90;;;;;;4831024;29;21098;-90
2021/01/04 03:44:58;;;;;;;1.47;1.37;;;4.40;99.90;;;;;;4862929;29;20235;-91
2021/01/04 03:47:25;;;;;;;1.03;0.93;;;4.40;99.90;;;;;;4844497;29;20197;-89
2021/01/04 03:49:51;;;;;;;1.03;0.43;;;4.50;99.90;;;;;;4843167;29;21015;-89
2021/01/04 03:52:17;;;;;;;1.30;0.97;;;4.40;99.90;;;;;;4863055;29;20232;-90
2021/01/04 03:54:43;;;;;;;0.30;0.30;;;4.50;99.90;;;;;;4827847;29;20227;-90
2021/01/04 03:57:09;;;;;;;5.10;3.37;;;4.50;99.90;;;;;;4861118;29;20219;-92
2021/01/04 03:59:35;;;;;;;0.87;0.87;;;4.40;99.90;;;;;;4842249;29;20188;-89
2021/01/04 04:02:01;;;;;;;0.80;0.80;;;4.40;99.90;;;;;;4847553;29;20189;-89
2021/01/04 04:04:27;;;;;;;0.30;0.30;;;4.40;99.90;;;;;;4841538;29;20587;-91
2021/01/04 04:06:53;;;;;;;1.30;0.97;;;4.30;99.90;;;;;;4845369;29;20260;-90
2021/01/04 04:09:20;;;;;;;0.60;0.60;;;4.30;99.90;;;;;;4828381;29;21135;-90
2021/01/04 04:11:49;;;;;;;0.47;0.47;;;4.30;99.90;;;;;;4841888;29;20291;-91
2021/01/04 04:14:15;;;;;;;2.50;0.40;;;4.30;99.90;;;;;;4832287;29;20184;-89
2021/01/04 04:16:41;;;;;;;0.63;0.63;;;4.30;99.90;;;;;;4859505;29;20307;-91
2021/01/04 04:19:07;;;;;;;0.77;0.63;;;4.30;99.90;;;;;;4858667;29;20236;-91
2021/01/04 04:21:34;;;;;;;0.30;0.30;;;4.30;99.90;;;;;;4826838;29;20256;-91
2021/01/04 04:24:00;;;;;;;1.13;0.50;;;4.30;99.90;;;;;;4858529;29;20255;-89
2021/01/04 04:26:28;;;;;;;0.40;0.40;;;4.30;99.90;;;;;;4842206;29;20192;-92
2021/01/04 04:28:54;;;;;;;0.40;0.40;;;4.40;99.90;;;;;;4858649;29;20315;-90
2021/01/04 04:31:21;;;;;;;2.30;1.03;;;4.40;99.90;;;;;;4811964;29;20224;-89
2021/01/04 04:33:48;;;;;;;0.67;0.67;;;4.30;99.90;;;;;;4843352;29;20248;-89
2021/01/04 04:36:24;;;;;;;0.77;0.73;;;4.30;99.90;;;;;;4845751;29;20224;-89
2021/01/04 04:38:51;;;;;;;0.53;0.53;;;4.30;99.90;;;;;;4845984;29;20223;-89
2021/01/04 04:41:31;;;;;;;0.67;0.67;;;4.30;99.90;;;;;;4862811;29;20313;-89
2021/01/04 04:44:26;;;;;;;0.20;0.20;;;4.30;99.90;;;;;;4843545;29;20231;-90
2021/01/04 04:47:14;;;;;;;2.90;0.80;;;4.20;99.90;;;;;;4843534;29;20633;-93
2021/01/04 04:49:59;;;;;;;0.90;0.90;;;4.20;99.90;;;;;;4841750;29;20232;-89
2021/01/04 04:52:37;;;;;;;1.70;1.60;;;4.20;99.90;;;;;;4842196;29;20309;-89
2021/01/04 04:55:03;;;;;;;0.53;0.53;;;4.20;99.90;;;;;;4857574;29;20224;-89
2021/01/04 04:57:43;;;;;;;0.30;0.30;;;4.20;99.90;;;;;;4849802;29;20251;-89
2021/01/04 05:00:32;;;;;;;0.30;0.30;;;4.20;99.90;;;;;;4842018;29;20277;-89
2021/01/04 05:03:24;;;;;;;0.20;0.20;;;4.20;99.90;;;;;;4841702;29;20243;-90
2021/01/04 05:05:52;;;;;;;0.30;0.30;;;4.10;99.90;;;;;;4815774;29;20694;-90
2021/01/04 05:08:40;;;;;;;0.43;0.43;;;4.10;99.90;;;;;;4845834;29;20192;-91
2021/01/04 05:11:07;;;;;;;0.20;0.20;;;4.10;99.90;;;;;;4843000;29;20228;-88
2021/01/04 05:13:38;;;;;;;0.57;0.57;;;4.10;99.90;;;;;;4826625;29;20235;-89
2021/01/04 05:16:10;;;;;;;0.87;0.87;;;4.00;99.90;;;;;;4840823;29;20216;-88
2021/01/04 05:19:27;;;;;;;0.30;0.30;;;4.00;99.90;;;;;;4841922;29;20248;-89
2021/01/04 05:22:20;;;;;;;0.27;0.27;;;4.00;99.90;;;;;;4812657;29;20233;-92
2021/01/04 05:25:00;;;;;;;0.77;0.77;;;4.10;99.90;;;;;;4827842;29;20727;-91
2021/01/04 05:27:51;;;;;;;0.93;0.93;;;4.10;99.90;;;;;;4851707;29;20228;-89
2021/01/04 05:30:47;;;;;;;0.30;0.30;;;4.10;99.90;;;;;;4840022;29;20307;-92
2021/01/04 05:33:47;;;;;;;0.57;0.50;;;4.10;99.90;;;;;;4856631;29;20587;-89
2021/01/04 05:36:15;;;;;;;1.47;0.57;;;4.10;99.90;;;;;;4840456;29;20242;-90
2021/01/04 05:39:00;;;;;;;2.20;1.50;;;4.00;99.90;;;;;;4836523;29;20196;-90
2021/01/04 05:41:32;;;;;;;0.50;0.50;;;3.90;99.90;;;;;;4841137;29;20192;-91
2021/01/04 05:44:22;;;;;;;0.30;0.30;;;3.80;99.90;;;;;;4841160;29;20228;-89
2021/01/04 05:46:56;;;;;;;0.57;0.57;;;3.80;99.90;;;;;;4842942;29;20311;-93
2021/01/04 05:49:43;;;;;;;1.90;1.90;;;3.80;99.90;;;;;;4841073;29;20239;-91
2021/01/04 05:52:09;;;;;;;0.93;0.60;;;3.80;99.90;;;;;;4840453;29;20230;-92
2021/01/04 05:54:36;;;;;;;0.40;0.40;;;3.70;99.90;;;;;;4840997;29;20228;-90
2021/01/04 05:57:14;;;;;;;0.43;0.43;;;3.70;99.90;;;;;;4840118;29;20232;-90
2021/01/04 05:59:49;;;;;;;1.60;1.50;;;3.70;99.90;;;;;;4859230;29;20205;-89
2021/01/04 06:02:26;;;;;;;0.20;0.20;;;3.80;99.90;;;;;;4862165;29;20301;-88
2021/01/04 06:04:53;;;;;;;0.77;0.77;;;3.70;99.90;;;;;;4840209;29;20244;-90
2021/01/04 06:07:20;;;;;;;0.37;0.37;;;3.80;99.90;;;;;;4841132;29;20228;-90
2021/01/04 06:09:56;;;;;;;0.40;0.40;;;3.80;99.90;;;;;;4856604;29;20262;-89
2021/01/04 06:12:35;;;;;;;0.20;0.20;;;3.80;99.90;;;;;;4857859;29;20228;-91
2021/01/04 06:15:01;;;;;;;0.53;0.53;;;3.80;99.90;;;;;;4839906;29;20224;-89
2021/01/04 06:17:36;;;;;;;0.50;0.50;;;3.80;99.90;;;;;;4840933;29;20193;-88
2021/01/04 06:20:27;;;;;;;0.30;0.30;;;3.80;99.90;;;;;;4860762;29;20180;-90
2021/01/04 06:22:53;;;;;;;0.60;0.50;;;3.80;99.90;;;;;;4841305;29;20324;-91
2021/01/04 06:25:19;;;;;;;0.30;0.30;;;3.80;99.90;;;;;;4825319;29;20969;-89
2021/01/04 06:27:47;;;;;;;0.30;0.30;;;3.90;99.90;;;;;;4817531;29;20749;-91
2021/01/04 06:30:28;;;;;;;1.03;0.30;;;3.90;99.90;;;;;;4841761;29;20240;-92
2021/01/04 06:32:54;;;;;;;0.23;0.23;;;3.90;99.90;;;;;;4839718;29;20975;-90
2021/01/04 06:35:26;;;;;;;13.00;0.50;;;3.90;99.90;;;;;;4829727;29;20239;-90
2021/01/04 06:38:10;;;;;;;11.97;1.17;;;3.90;99.90;;;;;;4858331;29;20243;-91
2021/01/04 06:40:44;;;;;;;0.30;0.30;;;3.90;99.90;;;;;;4858300;29;20316;-89
2021/01/04 06:43:40;;;;;;;0.20;0.20;;;3.90;99.90;;;;;;4840599;29;20731;-89
2021/01/04 06:46:12;;;;;;;0.20;0.20;;;3.90;99.90;;;;;;4823864;29;20319;-90
2021/01/04 06:48:53;;;;;;;0.30;0.30;;;3.90;99.90;;;;;;4855793;29;20220;-91
2021/01/04 06:51:46;;;;;;;0.20;0.20;;;4.00;99.90;;;;;;4840166;29;20313;-88
2021/01/04 06:54:29;;;;;;;11.93;1.10;;;3.90;99.90;;;;;;4858375;29;20239;-91
2021/01/04 06:57:24;;;;;;;0.73;0.67;;;3.90;99.90;;;;;;4839273;29;20228;-89
2021/01/04 07:00:05;;;;;;;0.20;0.20;;;4.00;99.90;;;;;;4832356;29;20237;-87
2021/01/04 07:02:49;;;;;;;0.20;0.20;;;4.00;99.90;;;;;;4841682;29;20199;-92
2021/01/04 07:05:27;;;;;;;0.20;0.20;;;3.90;99.90;;;;;;4841541;29;20230;-88
2021/01/04 07:08:11;;;;;;;0.40;0.40;;;3.90;99.90;;;;;;4857567;29;20930;-91
2021/01/04 07:10:43;;;;;;;0.40;0.40;;;3.90;99.90;;;;;;4848839;29;20225;-90
2021/01/04 07:13:36;;;;;;;0.20;0.20;;;3.90;99.90;;;;;;4846400;29;20224;-90
2021/01/04 07:16:11;;;;;;;0.60;0.60;;;3.90;99.90;;;;;;4847257;29;20216;-89
2021/01/04 07:19:11;;;;;;;0.23;0.23;;;3.90;99.90;;;;;;4862302;29;20220;-91
2021/01/04 07:21:43;;;;;;;0.40;0.40;;;3.90;99.90;;;;;;4858377;29;20219;-87
2021/01/04 07:24:51;;;;;;;0.47;0.40;;;3.90;99.90;;;;;;4841434;29;20298;-92
2021/01/04 07:27:19;;;;;;;0.30;0.30;;;3.80;99.90;;;;;;4848080;29;20240;-88
2021/01/04 07:30:10;;;;;;;0.20;0.20;;;3.80;99.90;;;;;;4845591;29;20241;-89
2021/01/04 07:32:38;;;;;;;0.30;0.30;;;3.80;99.90;;;;;;4860282;29;20192;-90
2021/01/04 07:35:10;;;;;;;0.37;0.37;;;3.80;99.90;;;;;;4844442;29;20319;-88
2021/01/04 07:38:04;;;;;;;0.73;0.60;;;3.70;99.90;;;;;;4844389;29;20758;-91
2021/01/04 07:40:49;;;;;;;0.50;0.50;;;3.70;99.90;;;;;;4842106;29;20280;-87
2021/01/04 07:43:33;;;;;;;0.30;0.30;;;3.70;99.90;;;;;;4860443;29;20261;-89
2021/01/04 07:46:26;;;;;;;0.30;0.30;;;3.70;99.90;;;;;;4842248;29;21200;-89
2021/01/04 07:49:10;;;;;;;0.20;0.20;;;3.70;99.90;;;;;;4850079;29;20215;-87
2021/01/04 07:51:42;;;;;;;0.63;0.50;;;3.60;99.90;;;;;;4860616;29;20275;-90
2021/01/04 07:54:46;;;;;;;0.33;0.33;;;3.60;99.90;;;;;;4844189;29;20234;-90
2021/01/04 07:57:33;;;;;;;0.40;0.40;;;3.50;99.90;;;;;;4807286;29;20220;-90
2021/01/04 08:00:07;;;;;;;15.30;0.83;;;3.50;99.90;;;;;;4845576;29;20264;-88
2021/01/04 08:02:51;;;;;;;0.80;0.80;;;3.50;99.90;;;;;;4845903;29;20220;-91
2021/01/04 08:05:54;;;;;;;0.50;0.50;;;3.50;99.90;;;;;;4845473;29;20223;-93
2021/01/04 08:08:57;;;;;;;1.07;0.30;;;3.50;99.90;;;;;;4843797;29;20216;-90
2021/01/04 08:12:00;;;;;;;0.53;0.53;;;3.40;99.90;;;;;;4834628;29;20227;-90
2021/01/04 08:14:55;;;;;;;0.30;0.30;;;3.40;99.90;;;;;;4847291;29;20228;-90
2021/01/04 08:17:31;;;;;;;0.20;0.20;;;3.40;99.90;;;;;;4843543;29;20345;-92
2021/01/04 08:20:00;;;;;;;0.30;0.30;;;3.40;99.90;;;;;;4836752;29;20227;-91
2021/01/04 08:22:42;;;;;;;0.30;0.30;;;3.40;99.90;;;;;;4846349;29;20228;-91
2021/01/04 08:25:39;;;;;;;0.20;0.20;;;3.40;99.90;;;;;;4857099;29;20274;-89
2021/01/04 08:28:17;;;;;;;0.30;0.30;;;3.40;99.90;;;;;;4833770;29;20226;-90
2021/01/04 08:31:20;;;;;;;0.30;0.30;;;3.40;99.90;;;;;;4843942;29;20224;-89
2021/01/04 08:34:22;;;;;;;0.63;0.20;;;3.40;99.90;;;;;;4839466;29;20355;-90
2021/01/04 08:36:55;;;;;;;0.40;0.40;;;3.40;99.90;;;;;;4854151;29;20239;-90
2021/01/04 08:39:20;;;;;;;0.20;0.20;;;3.40;99.90;;;;;;4835714;29;20727;-93
2021/01/04 08:42:03;;;;;;;0.20;0.20;;;3.40;99.90;;;;;;4839097;29;21925;-89
2021/01/04 08:44:33;;;;;;;0.50;0.50;;;3.30;99.90;;;;;;4859202;29;20671;-90
2021/01/04 08:47:27;;;;;;;2.60;0.40;;;3.30;99.90;;;;;;4843900;29;20191;-91
2021/01/04 08:50:10;;;;;;;1.33;0.40;;;3.30;99.90;;;;;;4858297;29;20216;-90
2021/01/04 08:52:51;;;;;;;0.70;0.70;;;3.20;99.90;;;;;;4856475;29;20224;-90
2021/01/04 08:55:44;;;;;;;0.27;0.27;;;3.30;99.90;;;;;;4841388;29;21008;-92
2021/01/04 08:58:28;;;;;;;2.40;0.87;;;3.30;99.90;;;;;;4855013;29;20229;-91
2021/01/04 09:01:27;;;;;;;0.37;0.37;;;3.30;99.90;;;;;;4841114;29;21103;-92
2021/01/04 09:04:09;;;;;;;0.30;0.30;;;3.30;99.90;;;;;;4836968;29;20292;-91
2021/01/04 09:06:43;;;;;;;0.40;0.40;;;3.20;99.90;;;;;;4840367;29;20226;-90
2021/01/04 09:09:30;;;;;;;0.40;0.40;;;3.20;99.90;;;;;;4842060;29;20706;-91
2021/01/04 09:12:17;;;;;;;0.20;0.20;;;3.30;99.90;;;;;;4841264;29;20224;-91
2021/01/04 09:15:04;;;;;;;0.20;0.20;;;3.30;99.90;;;;;;4861980;29;20188;-92
2021/01/04 09:17:52;;;;;;;0.30;0.30;;;3.40;99.90;;;;;;4840504;29;20623;-91
2021/01/04 09:20:18;;;;;;;0.43;0.43;;;3.40;99.90;;;;;;4844771;29;21084;-90
2021/01/04 09:22:45;;;;;;;1.40;0.60;;;3.40;99.90;;;;;;4842220;29;20243;-91
2021/01/04 09:25:22;;;;;;;0.60;0.60;;;3.40;99.90;;;;;;4842358;29;20220;-90
2021/01/04 09:27:51;;;;;;;0.40;0.40;;;3.30;99.90;;;;;;4842963;29;20232;-90
2021/01/04 09:30:23;;;;;;;0.40;0.40;;;3.30;99.90;;;;;;4840345;29;20255;-90
2021/01/04 09:33:01;;;;;;;0.30;0.30;;;3.40;99.90;;;;;;4840744;29;20287;-90
2021/01/04 09:35:27;;;;;;;0.40;0.40;;;3.30;99.90;;;;;;4855810;29;20600;-90
2021/01/04 09:38:12;;;;;;;1.07;0.50;;;3.30;99.90;;;;;;4827040;29;20786;-90
2021/01/04 09:40:38;;;;;;;1.10;1.07;;;3.30;99.90;;;;;;4841206;29;20219;-93
2021/01/04 09:43:09;;;;;;;0.67;0.67;;;3.30;99.90;;;;;;4826899;29;20228;-91
2021/01/04 09:45:36;;;;;;;1.50;1.40;;;3.30;99.90;;;;;;4858607;29;20340;-92
2021/01/04 09:48:06;;;;;;;2.63;0.90;;;3.30;99.90;;;;;;4823581;29;20224;-93
2021/01/04 09:50:54;;;;;;;0.10;0.10;;;3.30;99.90;;;;;;4856072;29;20273;-90
2021/01/04 09:53:31;;;;;;;0.30;0.30;;;3.30;99.90;;;;;;4843045;29;20639;-90
2021/01/04 09:56:12;;;;;;;2.73;1.73;;;3.30;99.90;;;;;;4855279;29;20637;-91
2021/01/04 09:58:41;;;;;;;0.30;0.30;;;3.20;99.90;;;;;;4837841;29;20601;-91
2021/01/04 10:01:09;;;;;;;1.27;0.60;;;3.20;99.90;;;;;;4825738;29;20327;-90
2021/01/04 10:03:36;;;;;;;0.23;0.23;;;3.20;99.90;;;;;;4842431;29;20393;-91
2021/01/04 10:06:07;;;;;;;0.40;0.40;;;3.20;99.90;;;;;;4825343;29;20399;-89
2021/01/04 10:08:40;;;;;;;0.80;0.80;;;3.20;99.90;;;;;;4841778;29;20192;-92
2021/01/04 10:11:09;;;;;;;0.50;0.50;;;3.10;99.90;;;;;;4844805;29;20201;-93
2021/01/04 10:13:39;;;;;;;0.97;0.83;;;3.10;99.90;;;;;;4850684;29;20232;-91
2021/01/04 10:16:09;;;;;;;0.20;0.20;;;3.10;99.90;;;;;;4842292;29;21002;-91
2021/01/04 10:18:55;;;;;;;0.20;0.20;;;3.20;99.90;;;;;;4842915;29;20228;-93
2021/01/04 10:21:27;;;;;;;0.20;0.20;;;3.20;99.90;;;;;;4828316;29;21217;-92
2021/01/04 10:24:00;;;;;;;0.57;0.57;;;3.20;99.90;;;;;;4838768;29;20239;-93
2021/01/04 10:26:26;;;;;;;0.57;0.57;;;3.20;99.90;;;;;;4845646;29;20188;-92
2021/01/04 10:28:52;;;;;;;0.30;0.30;;;3.20;99.90;;;;;;4843377;29;20235;-91
2021/01/04 10:31:28;;;;;;;4.53;0.77;;;3.20;99.90;;;;;;4839295;29;20224;-90
2021/01/04 10:34:08;;;;;;;0.80;0.80;;;3.10;99.90;;;;;;4860234;29;20216;-92
2021/01/04 10:36:35;;;;;;;0.30;0.30;;;3.10;99.90;;;;;;4843795;29;20223;-90
2021/01/04 10:39:07;;;;;;;0.40;0.40;;;3.10;99.90;;;;;;4827386;29;20233;-91
2021/01/04 10:41:35;;;;;;;0.30;0.30;;;3.10;99.90;;;;;;4843576;29;20192;-90
2021/01/04 10:44:06;;;;;;;0.50;0.40;;;3.10;99.90;;;;;;4846074;29;20621;-90
2021/01/04 10:46:34;;;;;;;1.93;0.40;;;3.10;99.90;;;;;;4845981;29;20231;-90
2021/01/04 10:49:21;;;;;;;0.70;0.70;;;3.10;99.90;;;;;;4847047;29;20228;-90
2021/01/04 10:51:52;;;;;;;0.30;0.30;;;3.10;99.90;;;;;;4853348;29;20226;-91
2021/01/04 10:54:40;;;;;;;0.40;0.40;;;3.10;99.90;;;;;;4846324;29;20228;-92
2021/01/04 10:57:11;;;;;;;0.20;0.20;;;3.10;99.90;;;;;;4846687;29;20216;-94
2021/01/04 10:59:45;;;;;;;1.57;0.47;;;3.10;99.90;;;;;;4851181;29;20208;-91
2021/01/04 11:02:11;;;;;;;0.33;0.33;;;3.10;99.90;;;;;;4845647;29;20284;-90
2021/01/04 11:04:38;;;;;;;0.23;0.23;;;3.10;99.90;;;;;;4830316;29;20236;-90
2021/01/04 11:07:13;;;;;;;2.07;0.50;;;3.10;99.90;;;;;;4863408;29;20777;-90
2021/01/04 11:09:41;;;;;;;0.50;0.50;;;3.10;99.90;;;;;;4854290;29;20238;-91
2021/01/04 11:12:20;;;;;;;0.60;0.60;;;3.20;99.90;;;;;;4847373;29;21293;-93
2021/01/04 11:15:00;;;;;;;0.30;0.30;;;3.20;99.90;;;;;;4845043;29;20682;-90
2021/01/04 11:17:36;;;;;;;0.37;0.37;;;3.10;99.90;;;;;;4864460;29;20189;-88
2021/01/04 11:20:15;;;;;;;0.50;0.50;;;3.10;99.90;;;;;;4844770;29;20907;-90
2021/01/04 11:22:41;;;;;;;0.30;0.30;;;3.10;99.90;;;;;;4860871;29;20243;-92
2021/01/04 11:25:09;;;;;;;0.47;0.30;;;3.10;99.90;;;;;;4843922;29;20770;-89
2021/01/04 11:27:35;;;;;;;0.47;0.47;;;3.10;99.90;;;;;;4846292;29;20260;-89
2021/01/04 11:30:01;;;;;;;0.30;0.30;;;3.10;99.90;;;;;;4826293;29;20315;-91
2021/01/04 11:32:27;;;;;;;0.73;0.73;;;3.00;99.90;;;;;;4831748;29;20283;-89
2021/01/04 11:34:55;;;;;;;0.50;0.50;;;3.00;99.90;;;;;;4828874;29;20747;-90
2021/01/04 11:37:23;;;;;;;0.20;0.20;;;3.00;99.90;;;;;;4860213;29;20801;-91
2021/01/04 11:39:50;;;;;;;0.30;0.30;;;3.00;99.90;;;;;;4861456;29;20228;-89
2021/01/04 11:42:16;;;;;;;0.97;0.97;;;3.00;99.90;;;;;;4862096;29;20656;-92
2021/01/04 11:44:42;;;;;;;0.30;0.30;;;3.00;99.90;;;;;;4847025;29;20203;-89
2021/01/04 11:47:08;;;;;;;0.40;0.40;;;2.90;99.90;;;;;;4832912;29;21427;-91
2021/01/04 11:49:34;;;;;;;0.20;0.20;;;3.00;99.90;;;;;;4844466;29;20908;-90
2021/01/04 11:52:00;;;;;;;0.80;0.80;;;3.00;99.90;;;;;;4815403;29;20217;-91
2021/01/04 11:54:26;;;;;;;0.43;0.43;;;3.00;99.90;;;;;;4844353;29;20232;-89
2021/01/04 11:56:52;;;;;;;0.50;0.50;;;2.90;99.90;;;;;;4829431;29;20225;-89
2021/01/04 11:59:21;;;;;;;1.90;1.00;;;2.90;99.90;;;;;;4844811;29;20189;-91
2021/01/04 12:01:46;;;;;;;0.20;0.20;;;2.90;99.90;;;;;;4828746;29;20694;-90
2021/01/04 12:04:12;;;;;;;0.60;0.60;;;2.90;99.90;;;;;;4843695;29;20235;-91
2021/01/04 12:06:38;;;;;;;0.30;0.30;;;2.90;99.90;;;;;;4828742;29;20240;-89
2021/01/04 12:09:06;;;;;;;0.40;0.40;;;2.90;99.90;;;;;;4828311;29;20387;-89
2021/01/04 12:11:38;;;;;;;1.10;1.10;;;2.90;99.90;;;;;;4842143;29;20579;-89
2021/01/04 12:14:07;;;;;;;0.47;0.47;;;2.80;99.90;;;;;;4844730;29;20184;-88
2021/01/04 12:16:34;;;;;;;0.70;0.70;;;2.80;99.90;;;;;;4862810;29;20225;-90
2021/01/04 12:19:01;;;;;;;0.20;0.20;;;2.80;99.90;;;;;;4833422;29;20322;-90
2021/01/04 12:21:26;;;;;;;2.53;0.33;;;2.80;99.90;;;;;;4829792;29;20219;-88
2021/01/04 12:23:52;;;;;;;0.40;0.40;;;2.80;99.90;;;;;;4830530;29;21265;-90
2021/01/04 12:26:19;;;;;;;0.47;0.47;;;2.80;99.90;;;;;;4861574;29;20204;-90
2021/01/04 12:28:45;;;;;;;1.13;1.03;;;2.80;99.90;;;;;;4858533;29;20228;-89
2021/01/04 12:31:13;;;;;;;0.20;0.20;;;2.90;99.90;;;;;;4845159;29;20224;-88
2021/01/04 12:33:39;;;;;;;0.40;0.40;;;2.80;99.90;;;;;;4841113;29;20239;-92
2021/01/04 12:36:06;;;;;;;1.00;0.93;;;2.90;99.90;;;;;;4829598;29;20215;-91
2021/01/04 12:38:32;;;;;;;0.33;0.33;;;2.90;99.90;;;;;;4829319;29;21163;-91
2021/01/04 12:40:58;;;;;;;0.23;0.23;;;2.90;99.90;;;;;;4829135;29;20254;-91
2021/01/04 12:43:23;;;;;;;1.07;0.57;;;2.90;99.90;;;;;;4826956;29;20236;-88
2021/01/04 12:45:49;;;;;;;0.70;0.70;;;2.90;99.90;;;;;;4859968;29;20251;-88
2021/01/04 12:48:15;;;;;;;0.20;0.20;;;2.90;99.90;;;;;;4841945;29;20228;-87
2021/01/04 12:50:40;;;;;;;0.47;0.47;;;2.90;99.90;;;;;;4841764;29;20196;-88
2021/01/04 12:53:06;;;;;;;0.37;0.37;;;2.90;99.90;;;;;;4814300;29;20688;-88
2021/01/04 12:55:32;;;;;;;0.47;0.47;;;2.90;99.90;;;;;;4821531;29;20220;-89
2021/01/04 12:58:05;;;;;;;0.70;0.70;;;2.90;99.90;;;;;;4843317;29;20233;-91
2021/01/04 13:00:31;;;;;;;1.00;1.00;;;2.90;99.90;;;;;;4829490;29;20298;-87
2021/01/04 13:02:56;;;;;;;0.20;0.20;;;3.00;99.90;;;;;;4844906;29;20240;-88
2021/01/04 13:05:22;;;;;;;0.30;0.30;;;3.00;99.90;;;;;;4842439;29;20200;-87
2021/01/04 13:07:48;;;;;;;0.80;0.80;;;3.00;99.90;;;;;;4826473;29;20688;-86
2021/01/04 13:10:14;;;;;;;1.30;0.50;;;3.00;99.90;;;;;;4841854;29;20227;-86
2021/01/04 13:12:40;;;;;;;0.50;0.50;;;2.90;99.90;;;;;;4840003;29;20763;-86
2021/01/04 13:15:07;;;;;;;1.50;0.40;;;2.90;99.90;;;;;;4840859;29;20224;-85
2021/01/04 13:17:33;;;;;;;1.87;1.73;;;3.00;99.90;;;;;;4825459;29;20207;-85
2021/01/04 13:19:59;;;;;;;1.13;1.13;;;3.00;99.90;;;;;;4858147;29;20418;-86
2021/01/04 13:22:26;;;;;;;0.30;0.30;;;3.00;99.90;;;;;;4825294;29;20223;-85
2021/01/04 13:24:53;;;;;;;0.20;0.20;;;3.00;99.90;;;;;;4827389;29;20229;-86
2021/01/04 13:27:19;;;;;;;0.40;0.40;;;3.00;99.90;;;;;;4828979;29;20224;-86
2021/01/04 13:29:46;;;;;;;0.20;0.20;;;3.00;99.90;;;;;;4856194;29;20191;-85
2021/01/04 13:32:12;;;;;;;0.70;0.70;;;3.00;99.90;;;;;;4841105;29;20248;-85
2021/01/04 13:34:38;;;;;;;0.53;0.43;;;3.10;99.90;;;;;;4825616;29;20732;-87
2021/01/04 13:37:06;;;;;;;0.37;0.37;;;3.10;99.90;;;;;;4827104;29;20693;-85
2021/01/04 13:39:31;;;;;;;0.20;0.20;;;3.10;99.90;;;;;;4841447;29;20591;-86
2021/01/04 13:42:00;;;;;;;1.23;1.20;;;3.10;99.90;;;;;;4838756;29;20261;-86
2021/01/04 13:44:28;;;;;;;0.40;0.40;;;3.10;99.90;;;;;;4841034;29;20294;-88